VRMM/MLE METAR and TAF weather

Enter ICAO airport designator
Station Type Date Time Source
VRMM METAR 2022/06/29 00:00 UTC NOAA

VRMM 290000Z 25007KT 9999 FEW018 BKN130 29/26 Q1008 NOSIG


Station Type Date Time Source
VRMM Decoded METAR 2022/06/29 00:00 UTC NOAA

Male, Maldives (VRMM) 04-12N 073-32E 2M
Jun 28, 2022 - 08:00 PM EDT / 2022.06.29 0000 UTC
Wind: from the WSW (250 degrees) at 8 MPH (7 KT):0
Visibility: greater than 7 mile(s):0
Sky conditions: mostly cloudy
Temperature: 84 F (29 C)
Dew Point: 78 F (26 C)
Relative Humidity: 83%
Pressure (altimeter): 29.77 in. Hg (1008 hPa)
ob: VRMM 290000Z 25007KT 9999 FEW018 BKN130 29/26 Q1008 NOSIG
cycle: 0

Station Type Date Time Source
VRMM TAF 2022/06/28 12:21 UTC NOAA

TAF TAF VRMM 281100Z 2812/2918 28007KT 9999 FEW018TCU BKN110
TEMPO 2814/2820 FEW018CB

Example: see airport list